GCLP/LPA METAR and TAF weather

Enter ICAO airport designator
Station Type Date Time Source
GCLP METAR 2022/06/29 00:30 UTC NOAA

GCLP 290030Z 36018KT 9999 SCT040 21/12 Q1021 NOSIG


Station Type Date Time Source
GCLP Decoded METAR 2022/06/29 00:30 UTC NOAA

Gran Canaria - Canary Islands, Spain (GCLP) 27-56N 015-23W 47M
Jun 28, 2022 - 08:30 PM EDT / 2022.06.29 0030 UTC
Wind: from the N (360 degrees) at 21 MPH (18 KT):0
Visibility: greater than 7 mile(s):0
Sky conditions: partly cloudy
Temperature: 69 F (21 C)
Dew Point: 53 F (12 C)
Relative Humidity: 56%
Pressure (altimeter): 30.15 in. Hg (1021 hPa)
ob: GCLP 290030Z 36018KT 9999 SCT040 21/12 Q1021 NOSIG
cycle: 0

Station Type Date Time Source
GCLP TAF 2022/06/28 21:37 UTC NOAA

TAF GCLP 282000Z 2821/2921 01024KT 9999 BKN035 TX26/2914Z TN20/2906Z

Example: see airport list